createdAt,value
2019-04-29T00:02:30.063Z,61.50
2019-04-29T00:04:57.909Z,62.50
2019-04-29T00:07:25.732Z,62.80
2019-04-29T00:09:53.630Z,62.80
2019-04-29T00:12:21.836Z,63.90
2019-04-29T00:14:57.300Z,64.50
2019-04-29T00:17:44.575Z,65.40
2019-04-29T00:20:28.324Z,65.70
2019-04-29T00:22:56.143Z,66.70
2019-04-29T00:25:23.953Z,67.20
2019-04-29T00:27:52.463Z,67.60
2019-04-29T00:30:21.684Z,68.00
2019-04-29T00:32:49.512Z,68.40
2019-04-29T00:35:17.344Z,69.60
2019-04-29T00:38:03.662Z,69.60
2019-04-29T00:40:47.060Z,72.20
2019-04-29T00:43:34.294Z,74.40
2019-04-29T00:46:02.380Z,73.90
2019-04-29T00:48:30.180Z,73.00
2019-04-29T00:50:57.972Z,72.80
2019-04-29T00:53:26.408Z,72.90
2019-04-29T00:55:54.321Z,72.80
2019-04-29T00:58:22.182Z,72.70
2019-04-29T01:00:50.099Z,72.50
2019-04-29T01:03:17.891Z,72.40
2019-04-29T01:05:45.770Z,72.40
2019-04-29T01:08:13.701Z,72.50
2019-04-29T01:10:41.641Z,72.40
2019-04-29T01:13:09.461Z,72.50
2019-04-29T01:15:37.254Z,72.50
2019-04-29T01:18:05.277Z,73.00
2019-04-29T01:20:33.081Z,73.60
2019-04-29T01:23:00.879Z,73.90
2019-04-29T01:25:28.689Z,74.20
2019-04-29T01:28:25.172Z,74.40
2019-04-29T01:30:54.671Z,74.70
2019-04-29T01:33:22.618Z,75.10
2019-04-29T01:35:52.208Z,75.10
2019-04-29T01:38:20.041Z,75.10
2019-04-29T01:40:54.929Z,75.00
2019-04-29T01:43:22.820Z,75.10
2019-04-29T01:45:50.611Z,75.50
2019-04-29T01:48:18.443Z,75.90
2019-04-29T01:50:46.429Z,76.50
2019-04-29T01:53:14.394Z,76.90
2019-04-29T01:55:42.197Z,77.10
2019-04-29T01:58:10.043Z,77.80
2019-04-29T02:00:37.971Z,78.60
2019-04-29T02:03:05.845Z,78.90
2019-04-29T02:05:33.630Z,78.90
2019-04-29T02:08:01.430Z,80.20
2019-04-29T02:10:32.316Z,80.70
2019-04-29T02:13:00.298Z,81.20
2019-04-29T02:15:28.197Z,82.10
2019-04-29T02:17:55.970Z,81.30
2019-04-29T02:20:23.779Z,81.20
2019-04-29T02:23:19.907Z,81.10
2019-04-29T02:25:47.995Z,80.90
2019-04-29T02:28:15.813Z,81.30
2019-04-29T02:30:46.612Z,82.20
2019-04-29T02:33:14.483Z,82.50
2019-04-29T02:35:42.280Z,83.30
2019-04-29T02:38:15.279Z,83.40
2019-04-29T02:40:50.558Z,83.30
2019-04-29T02:43:22.179Z,83.50
2019-04-29T02:45:49.953Z,84.00
2019-04-29T02:48:17.767Z,84.00
2019-04-29T02:50:45.775Z,84.00
2019-04-29T02:53:13.564Z,83.90
2019-04-29T02:55:45.665Z,83.30
2019-04-29T02:58:37.685Z,83.10
2019-04-29T03:01:08.111Z,83.00
2019-04-29T03:04:02.925Z,83.70
2019-04-29T03:06:30.826Z,84.50
2019-04-29T03:08:58.720Z,85.40
2019-04-29T03:11:26.533Z,85.70
2019-04-29T03:13:54.886Z,86.20
2019-04-29T03:16:22.680Z,85.90
2019-04-29T03:18:55.976Z,85.80
2019-04-29T03:21:46.214Z,86.10
2019-04-29T03:24:14.061Z,86.30
2019-04-29T03:26:41.855Z,86.50
2019-04-29T03:29:21.501Z,86.70
2019-04-29T03:31:50.780Z,86.70
2019-04-29T03:34:18.649Z,87.00
2019-04-29T03:36:46.467Z,86.90
2019-04-29T03:39:14.494Z,86.90
2019-04-29T03:41:42.331Z,86.60
2019-04-29T03:44:10.172Z,86.50
2019-04-29T03:46:37.954Z,86.30
2019-04-29T03:49:05.843Z,86.50
2019-04-29T03:51:33.746Z,86.50
2019-04-29T03:54:01.525Z,86.80
2019-04-29T03:56:29.708Z,88.50
2019-04-29T03:58:57.868Z,89.60
2019-04-29T04:01:36.954Z,90.30
2019-04-29T04:04:17.358Z,90.80
2019-04-29T04:06:50.237Z,91.30
2019-04-29T04:09:29.477Z,91.40
2019-04-29T04:11:57.846Z,91.90
2019-04-29T04:14:25.691Z,92.10
2019-04-29T04:17:20.887Z,92.20
2019-04-29T04:19:49.500Z,92.50
2019-04-29T04:22:17.886Z,92.80
2019-04-29T04:24:46.313Z,93.40
2019-04-29T04:27:14.530Z,94.20
2019-04-29T04:29:42.784Z,94.50
2019-04-29T04:32:11.224Z,94.50
2019-04-29T04:34:39.511Z,95.30
2019-04-29T04:37:07.625Z,95.70
2019-04-29T04:39:37.585Z,95.20
2019-04-29T04:42:05.914Z,93.70
2019-04-29T04:44:49.748Z,92.30
2019-04-29T04:47:19.259Z,90.60
2019-04-29T04:49:48.073Z,86.30
2019-04-29T04:52:16.319Z,83.60
2019-04-29T04:54:46.387Z,80.60
2019-04-29T04:57:14.815Z,78.20
2019-04-29T04:59:43.291Z,77.10
2019-04-29T05:02:11.770Z,75.50
2019-04-29T05:04:40.171Z,75.40
2019-04-29T05:07:08.205Z,71.90
2019-04-29T05:09:36.361Z,70.50
2019-04-29T05:12:04.764Z,69.30
2019-04-29T05:14:33.203Z,68.80
2019-04-29T05:17:01.519Z,67.80
2019-04-29T05:19:29.837Z,67.60
2019-04-29T05:21:58.053Z,68.20
2019-04-29T05:24:26.444Z,67.60
2019-04-29T05:26:54.821Z,67.10
2019-04-29T05:29:23.101Z,66.80
2019-04-29T05:31:51.578Z,66.10
2019-04-29T05:34:21.283Z,66.30
2019-04-29T05:36:56.266Z,66.20
2019-04-29T05:39:27.957Z,65.20
2019-04-29T05:41:55.968Z,65.40
2019-04-29T05:44:31.549Z,64.90
2019-04-29T05:47:06.098Z,65.20
2019-04-29T05:49:49.640Z,65.90
2019-04-29T05:52:44.535Z,65.50
2019-04-29T05:55:13.902Z,66.30
2019-04-29T05:57:42.929Z,66.50
2019-04-29T06:00:11.862Z,67.70
2019-04-29T06:02:40.130Z,67.20
2019-04-29T06:05:08.718Z,67.70
2019-04-29T06:07:36.932Z,68.50
2019-04-29T06:10:05.732Z,67.70
2019-04-29T06:12:33.958Z,68.20
2019-04-29T06:15:02.340Z,67.30
2019-04-29T06:17:30.306Z,67.30
2019-04-29T06:19:58.203Z,67.20
2019-04-29T06:22:26.075Z,65.20
2019-04-29T06:24:54.508Z,66.40
2019-04-29T06:27:22.734Z,63.80
2019-04-29T06:29:51.209Z,65.00
2019-04-29T06:32:20.162Z,65.00
2019-04-29T06:34:49.501Z,65.10
2019-04-29T06:37:17.410Z,65.20
2019-04-29T06:39:45.275Z,63.60
2019-04-29T06:42:15.457Z,62.20
2019-04-29T06:44:44.349Z,63.50
2019-04-29T06:47:16.700Z,63.20
2019-04-29T06:49:43.613Z,64.10
2019-04-29T06:52:11.977Z,64.90
2019-04-29T06:54:40.409Z,65.00
2019-04-29T06:57:08.658Z,65.00
2019-04-29T06:59:36.885Z,64.10
2019-04-29T07:02:09.418Z,63.60
2019-04-29T07:04:38.716Z,63.60
2019-04-29T07:07:05.262Z,62.70
2019-04-29T07:09:33.505Z,62.70
2019-04-29T07:12:02.017Z,62.20
2019-04-29T07:14:33.245Z,60.90
2019-04-29T07:17:04.993Z,59.90
2019-04-29T07:19:30.636Z,60.60
2019-04-29T07:21:58.726Z,59.90
2019-04-29T07:24:27.187Z,60.10
2019-04-29T07:26:57.734Z,60.20
2019-04-29T07:29:30.371Z,60.60
2019-04-29T07:31:55.891Z,60.80
2019-04-29T07:34:24.573Z,60.50
2019-04-29T07:36:57.499Z,60.60
2019-04-29T07:39:26.731Z,60.60
2019-04-29T07:41:53.743Z,60.10
2019-04-29T07:44:23.911Z,60.90
2019-04-29T07:47:00.435Z,61.50
2019-04-29T07:49:24.025Z,60.80
2019-04-29T07:51:51.978Z,60.80
2019-04-29T07:54:20.407Z,61.10
2019-04-29T07:56:48.840Z,61.10
2019-04-29T07:59:17.345Z,60.80
2019-04-29T08:01:45.572Z,61.10
2019-04-29T08:04:14.055Z,61.30
2019-04-29T08:06:44.455Z,61.40
2019-04-29T08:09:12.468Z,60.90
2019-04-29T08:11:40.383Z,61.40
2019-04-29T08:14:08.249Z,61.70
2019-04-29T08:16:36.612Z,61.50
2019-04-29T08:19:05.106Z,61.20
2019-04-29T08:21:33.566Z,60.90
2019-04-29T08:24:01.634Z,60.60
2019-04-29T08:26:33.631Z,59.50
2019-04-29T08:29:00.682Z,59.50
2019-04-29T08:31:29.346Z,59.00
2019-04-29T08:33:57.163Z,58.10
2019-04-29T08:36:25.363Z,58.10
2019-04-29T08:38:53.625Z,56.90
2019-04-29T08:41:28.527Z,56.80
2019-04-29T08:44:16.496Z,56.80
2019-04-29T08:46:51.799Z,56.90
2019-04-29T08:49:16.380Z,56.80
2019-04-29T08:51:44.812Z,56.70
2019-04-29T08:54:16.035Z,56.90
2019-04-29T08:57:01.897Z,57.00
2019-04-29T08:59:12.951Z,56.50
2019-04-29T09:01:41.524Z,56.90
2019-04-29T09:04:10.070Z,56.90
2019-04-29T09:06:38.680Z,56.00
2019-04-29T09:09:10.598Z,56.30
2019-04-29T09:11:37.220Z,55.70
2019-04-29T09:14:05.221Z,56.70
2019-04-29T09:16:33.667Z,56.30
2019-04-29T09:19:01.875Z,56.00
2019-04-29T09:21:30.243Z,55.40
2019-04-29T09:23:58.365Z,55.50
2019-04-29T09:26:38.223Z,55.70
2019-04-29T09:29:24.150Z,55.10
2019-04-29T09:31:52.209Z,56.50
2019-04-29T09:34:24.851Z,56.80
2019-04-29T09:36:50.487Z,57.50
2019-04-29T09:39:21.178Z,56.40
2019-04-29T09:42:08.020Z,56.90
2019-04-29T09:44:53.529Z,56.90
2019-04-29T09:47:21.485Z,57.00
2019-04-29T09:49:49.767Z,57.10
2019-04-29T09:52:17.839Z,56.70
2019-04-29T09:54:45.846Z,56.70
2019-04-29T09:57:14.180Z,56.80
2019-04-29T09:59:46.623Z,56.30
2019-04-29T10:02:34.282Z,55.60
2019-04-29T10:05:20.681Z,56.70
2019-04-29T10:07:48.594Z,56.10
2019-04-29T10:10:17.072Z,56.00
2019-04-29T10:12:45.304Z,55.90
2019-04-29T10:15:15.513Z,55.40
2019-04-29T10:17:56.147Z,55.20
2019-04-29T10:20:50.059Z,55.00
2019-04-29T10:23:18.333Z,55.10
2019-04-29T10:25:46.218Z,55.10
2019-04-29T10:28:14.336Z,54.50
2019-04-29T10:30:42.955Z,54.30
2019-04-29T10:33:12.819Z,54.10
2019-04-29T10:35:45.122Z,54.20
2019-04-29T10:38:11.445Z,54.20
2019-04-29T10:40:56.640Z,53.80
2019-04-29T10:43:45.288Z,53.90
2019-04-29T10:46:32.922Z,53.60
2019-04-29T10:49:06.288Z,53.90
2019-04-29T10:51:34.696Z,53.20
2019-04-29T10:54:03.046Z,53.10
2019-04-29T10:56:31.608Z,53.20
2019-04-29T10:59:00.084Z,53.50
2019-04-29T11:02:25.130Z,52.80
2019-04-29T11:04:56.175Z,52.00
2019-04-29T11:07:30.898Z,52.20
2019-04-29T11:10:03.462Z,52.20
2019-04-29T11:12:32.050Z,52.50
2019-04-29T11:15:01.774Z,52.70
2019-04-29T11:17:29.667Z,52.10
2019-04-29T11:19:58.058Z,52.20
2019-04-29T11:22:33.999Z,52.20
2019-04-29T11:25:18.648Z,52.30
2019-04-29T11:27:50.265Z,53.00
2019-04-29T11:30:22.217Z,52.70
2019-04-29T11:32:54.839Z,53.10
2019-04-29T11:35:31.775Z,53.20
2019-04-29T11:38:00.063Z,52.60
2019-04-29T11:40:42.601Z,51.90
2019-04-29T11:42:58.658Z,52.40
2019-04-29T11:45:26.551Z,52.00
2019-04-29T11:47:54.891Z,51.40
2019-04-29T11:50:32.686Z,51.60
2019-04-29T11:53:01.007Z,51.10
2019-04-29T11:55:29.204Z,51.70
2019-04-29T11:58:02.118Z,51.60
2019-04-29T12:00:58.555Z,51.70
2019-04-29T12:03:32.459Z,51.80
2019-04-29T12:06:02.475Z,51.50
2019-04-29T12:08:30.493Z,51.60
2019-04-29T12:11:07.276Z,51.40
2019-04-29T12:13:38.562Z,52.20
2019-04-29T12:16:26.450Z,52.10
2019-04-29T12:18:59.846Z,51.50
2019-04-29T12:21:29.647Z,51.80
2019-04-29T12:23:59.625Z,51.90
2019-04-29T12:26:28.609Z,51.10
2019-04-29T12:28:56.988Z,51.60
2019-04-29T12:31:34.374Z,51.90
2019-04-29T12:34:14.063Z,51.80
2019-04-29T12:36:54.821Z,51.80
2019-04-29T12:39:42.666Z,51.40
2019-04-29T12:42:20.080Z,50.30
2019-04-29T12:45:00.669Z,50.30
2019-04-29T12:47:33.755Z,51.10
2019-04-29T12:50:01.875Z,51.60
2019-04-29T12:52:29.693Z,50.90
2019-04-29T12:55:00.818Z,51.90
2019-04-29T12:57:27.181Z,52.10
2019-04-29T12:59:55.083Z,52.00
2019-04-29T13:02:40.210Z,51.90
2019-04-29T13:05:26.433Z,51.60
2019-04-29T13:08:29.887Z,52.80
2019-04-29T13:11:01.541Z,52.20
2019-04-29T13:13:29.455Z,51.50
2019-04-29T13:16:22.971Z,52.40
2019-04-29T13:19:11.897Z,51.10
2019-04-29T13:21:39.530Z,51.60
2019-04-29T13:24:18.231Z,51.00
2019-04-29T13:26:40.080Z,51.10
2019-04-29T13:29:06.734Z,50.70
2019-04-29T13:31:38.374Z,50.80
2019-04-29T13:34:22.975Z,50.80
2019-04-29T13:36:36.401Z,50.90
2019-04-29T13:39:07.960Z,50.00
2019-04-29T13:41:55.624Z,50.90
2019-04-29T13:44:07.584Z,50.70
2019-04-29T13:47:07.290Z,50.20
2019-04-29T13:49:49.388Z,50.10
2019-04-29T13:52:18.073Z,50.30
2019-04-29T13:54:45.907Z,50.70
2019-04-29T13:57:16.068Z,49.80
2019-04-29T14:00:03.117Z,49.40
2019-04-29T14:02:36.834Z,49.60
2019-04-29T14:05:06.923Z,49.30
2019-04-29T14:07:34.723Z,49.00
2019-04-29T14:10:03.092Z,49.10
2019-04-29T14:12:48.871Z,49.00
2019-04-29T14:15:01.143Z,48.90
2019-04-29T14:17:31.787Z,49.10
2019-04-29T14:19:58.646Z,49.60
2019-04-29T14:22:26.711Z,49.60
2019-04-29T14:24:54.928Z,49.80
2019-04-29T14:27:25.260Z,49.50
2019-04-29T14:29:53.165Z,48.90
2019-04-29T14:32:33.438Z,48.90
2019-04-29T14:34:57.142Z,49.10
2019-04-29T14:37:25.714Z,48.40
2019-04-29T14:39:54.299Z,48.90
2019-04-29T14:42:32.573Z,49.00
2019-04-29T14:45:19.933Z,48.80
2019-04-29T14:48:07.663Z,48.80
2019-04-29T14:50:36.145Z,48.40
2019-04-29T14:53:04.100Z,48.40
2019-04-29T14:55:32.443Z,48.50
2019-04-29T14:58:00.707Z,48.80
2019-04-29T15:00:45.270Z,48.10
2019-04-29T15:03:13.063Z,48.30
2019-04-29T15:05:41.377Z,48.70
2019-04-29T15:08:09.296Z,48.80
2019-04-29T15:10:38.704Z,49.00
2019-04-29T15:13:20.663Z,48.70
2019-04-29T15:16:04.549Z,48.60
2019-04-29T15:18:51.193Z,49.10
2019-04-29T15:21:32.854Z,50.10
2019-04-29T15:23:59.281Z,49.30
2019-04-29T15:26:27.148Z,49.90
2019-04-29T15:28:54.976Z,50.20
2019-04-29T15:31:23.658Z,50.10
2019-04-29T15:33:51.569Z,49.40
2019-04-29T15:36:19.875Z,49.60
2019-04-29T15:39:08.111Z,49.50
2019-04-29T15:41:17.825Z,49.40
2019-04-29T15:43:48.070Z,49.60
2019-04-29T15:46:15.693Z,49.00
2019-04-29T15:48:43.510Z,48.90
2019-04-29T15:51:13.911Z,49.40
2019-04-29T15:53:41.058Z,49.40
2019-04-29T15:56:27.767Z,49.20
2019-04-29T15:58:39.211Z,48.80
2019-04-29T16:01:14.721Z,48.50
2019-04-29T16:03:39.223Z,49.30
2019-04-29T16:06:25.852Z,48.70
2019-04-29T16:08:59.095Z,49.30
2019-04-29T16:11:44.723Z,48.70
2019-04-29T16:14:19.473Z,48.40
2019-04-29T16:16:47.328Z,48.40
2019-04-29T16:19:15.486Z,48.80
2019-04-29T16:21:43.488Z,48.90
2019-04-29T16:24:26.040Z,49.10
2019-04-29T16:26:41.376Z,48.70
2019-04-29T16:29:13.329Z,48.90
2019-04-29T16:31:39.292Z,48.50
2019-04-29T16:34:07.347Z,49.10
2019-04-29T16:36:35.238Z,50.00
2019-04-29T16:39:05.136Z,50.10
2019-04-29T16:41:58.419Z,50.10
2019-04-29T16:44:34.898Z,49.20
2019-04-29T16:46:52.310Z,49.10
2019-04-29T16:49:20.189Z,48.60
2019-04-29T16:51:53.487Z,48.90
2019-04-29T16:54:20.521Z,49.50
2019-04-29T16:56:47.880Z,49.10
2019-04-29T16:59:15.808Z,49.20
2019-04-29T17:01:43.978Z,49.30
2019-04-29T17:04:12.108Z,49.50
2019-04-29T17:06:41.491Z,49.40
2019-04-29T17:09:47.477Z,49.80
2019-04-29T17:12:15.332Z,49.30
2019-04-29T17:15:03.186Z,49.10
2019-04-29T17:17:17.830Z,49.90
2019-04-29T17:19:45.881Z,50.00
2019-04-29T17:22:25.551Z,50.20
2019-04-29T17:24:43.799Z,50.20
2019-04-29T17:27:35.028Z,50.00
2019-04-29T17:30:22.464Z,50.00
2019-04-29T17:33:10.015Z,50.00
2019-04-29T17:35:46.825Z,50.30
2019-04-29T17:38:08.701Z,50.60
2019-04-29T17:40:36.818Z,50.70
2019-04-29T17:43:14.137Z,50.30
2019-04-29T17:45:52.022Z,50.50
2019-04-29T17:48:33.501Z,50.00
2019-04-29T17:51:04.690Z,50.00
2019-04-29T17:53:37.447Z,50.30
2019-04-29T17:56:25.380Z,50.20
2019-04-29T17:58:58.499Z,50.30
2019-04-29T18:02:05.255Z,50.20
2019-04-29T18:04:45.647Z,50.20
2019-04-29T18:07:35.019Z,50.10
2019-04-29T18:10:29.396Z,50.20
2019-04-29T18:12:56.870Z,50.90
2019-04-29T18:15:26.655Z,51.40
2019-04-29T18:17:55.871Z,51.70
2019-04-29T18:20:52.404Z,52.00
2019-04-29T18:23:38.423Z,52.20
2019-04-29T18:26:14.868Z,52.40
2019-04-29T18:28:43.158Z,52.60
2019-04-29T18:31:12.376Z,52.80
2019-04-29T18:33:40.288Z,53.10
2019-04-29T18:36:19.070Z,53.30
2019-04-29T18:38:38.086Z,53.80
2019-04-29T18:41:05.982Z,53.80
2019-04-29T18:43:35.663Z,54.80
2019-04-29T18:46:07.595Z,54.70
2019-04-29T18:48:35.265Z,54.60
2019-04-29T18:51:03.176Z,54.60
2019-04-29T18:53:30.999Z,54.50
2019-04-29T18:55:59.134Z,54.60
2019-04-29T18:58:27.058Z,55.00
2019-04-29T19:00:56.403Z,55.10
2019-04-29T19:03:49.373Z,55.30
2019-04-29T19:06:17.950Z,55.60
2019-04-29T19:08:45.783Z,55.90
2019-04-29T19:11:15.176Z,56.40
2019-04-29T19:13:43.480Z,56.60
2019-04-29T19:16:12.886Z,56.60
2019-04-29T19:18:40.690Z,57.00
2019-04-29T19:21:08.500Z,57.40
2019-04-29T19:23:36.315Z,56.80
2019-04-29T19:26:04.302Z,57.30
2019-04-29T19:28:32.579Z,57.20
2019-04-29T19:31:03.099Z,57.30
2019-04-29T19:33:30.719Z,57.20
2019-04-29T19:35:59.650Z,57.50
2019-04-29T19:38:27.443Z,57.20
2019-04-29T19:40:55.274Z,57.20
2019-04-29T19:43:23.067Z,57.00
2019-04-29T19:45:50.949Z,56.90
2019-04-29T19:48:22.494Z,56.40
2019-04-29T19:50:49.667Z,56.10
2019-04-29T19:53:18.450Z,55.90
2019-04-29T19:55:46.258Z,55.70
2019-04-29T19:58:14.550Z,55.80
2019-04-29T20:00:43.144Z,55.60
2019-04-29T20:03:21.146Z,55.80
2019-04-29T20:05:54.252Z,55.90
2019-04-29T20:08:46.251Z,56.00
2019-04-29T20:10:53.739Z,56.30
2019-04-29T20:13:30.375Z,56.60
2019-04-29T20:16:10.793Z,56.50
2019-04-29T20:19:00.975Z,56.70
2019-04-29T20:21:29.030Z,56.80
2019-04-29T20:23:55.564Z,57.00
2019-04-29T20:26:29.293Z,57.00
2019-04-29T20:28:55.619Z,57.20
2019-04-29T20:31:23.000Z,57.10
2019-04-29T20:33:51.254Z,57.20
2019-04-29T20:36:33.097Z,57.30
2019-04-29T20:38:49.039Z,57.30
2019-04-29T20:41:19.524Z,57.20
2019-04-29T20:43:46.873Z,57.10
2019-04-29T20:46:15.973Z,57.20
2019-04-29T20:48:45.632Z,57.20
2019-04-29T20:51:14.588Z,57.20
2019-04-29T20:53:51.457Z,57.20
2019-04-29T20:56:27.549Z,57.20
2019-04-29T20:58:48.963Z,57.40
2019-04-29T21:01:38.680Z,57.50
2019-04-29T21:04:03.021Z,57.50
2019-04-29T21:06:32.707Z,57.30
2019-04-29T21:09:00.593Z,57.20
2019-04-29T21:11:40.950Z,57.00
2019-04-29T21:14:33.877Z,56.80
2019-04-29T21:17:02.150Z,56.90
2019-04-29T21:19:27.494Z,56.90
2019-04-29T21:21:55.279Z,56.90
2019-04-29T21:24:24.753Z,56.50
2019-04-29T21:26:52.754Z,56.60
2019-04-29T21:29:20.550Z,56.70
2019-04-29T21:31:50.577Z,56.60
2019-04-29T21:34:19.517Z,56.80
2019-04-29T21:37:10.037Z,56.50
2019-04-29T21:39:55.076Z,56.70
2019-04-29T21:42:35.488Z,57.00
2019-04-29T21:45:08.704Z,56.60
2019-04-29T21:47:42.673Z,56.90
2019-04-29T21:50:05.089Z,56.60
2019-04-29T21:52:32.951Z,56.80
2019-04-29T21:55:00.764Z,56.60
2019-04-29T21:57:28.641Z,56.70
2019-04-29T21:59:56.423Z,56.70
2019-04-29T22:02:26.051Z,56.90
2019-04-29T22:04:55.177Z,56.90
2019-04-29T22:07:23.352Z,56.90
2019-04-29T22:09:51.281Z,57.00
2019-04-29T22:12:20.239Z,56.70
2019-04-29T22:14:53.654Z,56.80
2019-04-29T22:17:18.673Z,56.80
2019-04-29T22:19:46.457Z,56.90
2019-04-29T22:22:14.384Z,57.00
2019-04-29T22:24:42.264Z,56.90
2019-04-29T22:27:10.049Z,57.10
2019-04-29T22:29:39.371Z,57.00
2019-04-29T22:32:14.468Z,57.00
2019-04-29T22:34:37.127Z,56.80
2019-04-29T22:37:05.486Z,56.90
2019-04-29T22:39:33.474Z,57.00
2019-04-29T22:42:23.674Z,57.00
2019-04-29T22:44:52.617Z,56.80
2019-04-29T22:47:23.952Z,57.20
2019-04-29T22:49:50.474Z,57.50
2019-04-29T22:52:18.250Z,57.10
2019-04-29T22:54:46.067Z,57.40
2019-04-29T22:57:15.570Z,57.20
2019-04-29T22:59:44.931Z,57.20
2019-04-29T23:02:13.112Z,57.10
2019-04-29T23:04:40.965Z,57.00
2019-04-29T23:07:09.171Z,57.00
2019-04-29T23:09:36.994Z,56.90
2019-04-29T23:12:05.464Z,57.00
2019-04-29T23:14:33.351Z,57.30
2019-04-29T23:17:01.208Z,57.40
2019-04-29T23:19:29.004Z,57.10
2019-04-29T23:22:34.138Z,57.30
2019-04-29T23:25:15.677Z,57.60
2019-04-29T23:27:43.816Z,57.40
2019-04-29T23:30:17.605Z,57.40
2019-04-29T23:32:44.329Z,57.20
2019-04-29T23:35:12.745Z,57.40
2019-04-29T23:37:40.615Z,57.70
2019-04-29T23:40:08.807Z,57.50
2019-04-29T23:42:36.598Z,57.70
2019-04-29T23:45:05.278Z,57.80
2019-04-29T23:47:33.146Z,57.80
2019-04-29T23:50:00.927Z,57.60
2019-04-29T23:52:28.819Z,57.70
2019-04-29T23:54:56.620Z,58.00
2019-04-29T23:58:02.939Z,57.90
